Aérodrome :
LOGIN :

S'inscrire | Disclaimer

   EN    FR    IT 

 










Légende :    VFR   VFR Marginal   IFR   IFR Intensif   IFR Très Intensif
Visi : 
Plafond : 
>= 8 km
>= 3000ft
5 à 8 km
1000 à 3000 ft
1500m à 5 km
500 à 1000 ft
800 à 1500m
200 à 500 ft
< 800m
< 200 ft
Symboles :   Orages  Brouillard  Fortes neiges  Fortes précipitations  Vent > 20 kt
SIGMETs :   Divers  Orages  Givrage  Turbulence  Onde Orograph.  Cendres Volcan.







- Altitude de l'aérodrome : 13 ft
- Code IATA : SNR
- Voir les cartes d'approche


LFRZ - St-Nazaire

DERNIER METAR :
  • 230730Z AUTO 02005KT CAVOK 08/06 Q1035 NOSIG

METARs EXPIRÉS :
  • 230700Z AUTO 02005KT 350V050 CAVOK 07/05 Q1035 NOSIG
  • 230630Z AUTO 02009KT CAVOK 07/05 Q1035 NOSIG
  • 230600Z AUTO 02008KT CAVOK 07/06 Q1034 NOSIG
  • 230530Z AUTO 02008KT CAVOK 07/06 Q1034 NOSIG
  • 230500Z AUTO 02007KT CAVOK 07/06 Q1034 NOSIG

TAF TAF LFRZ
Valide du 23 à 06h jusqu'au 24 à 06h UTC


230500Z 2306/2406 03005KT CAVOK
PROB30
TEMPO 2405/2406 0500 FG VV///
Pas de NOTAMs connus pour ce terrain.



MET'MAP, la Météo Aéronautique d'un coup d'oeil ! - Copyright ORBIFLY Décembre 2007 - Disclaimer

ORBIFLY MET'MAP TEAM :

Programmation & Développement : Alexandra Zaïnal
Conception & Développement : Baudouin d'Aumeries
Co-Programmation & Développement : Marc-Olivier Méhu
Soutien technique & logistique : Manuel Goepfert

Contact : metmap@orbifly.com




SOURCES & CREDITS :

   NOAA